Weather observations for the past three days for
Portland, Portland-Troutdale Airport
Metric (Imperial)
Date Time (pdt) Wind (kph) Vis. (km) Weather Sky Cond. Temperature (ºC) Relative Humidity Wind Chill (°C) Heat Index (°C) Pressure Precipitation (cm)
Air Dwpt 6 hour altimeter (cm) sea level (mb) 1 hr 3 hr 6 hr
Max. Min.
07 07:53 NW 9 16.09 Overcast OVC036 11.1 5.6 69% 76.58 1021.1
07 06:53 Calm 16.09 Overcast OVC036 11.1 6.1 72% 76.58 1020.8
07 05:53 Calm 16.09 Overcast OVC038 11.1 5.6 69% 76.56 1020.7
07 04:53 Vrbl 6 16.09 Overcast OVC036 11.7 6.1 13.3 11.7 69% 76.58 1020.8
07 03:53 Vrbl 6 16.09 Overcast OVC035 12.2 6.1 67% 76.58 1020.9
07 02:53 Vrbl 6 16.09 Overcast OVC025 12.8 7.2 69% 76.61 1021.1
07 01:53 Calm 16.09 Overcast OVC030 12.8 7.8 72% 76.61 1021.4
07 00:53 W 7 16.09 Overcast OVC031 13.3 8.3 72% 76.61 1021.4
06 23:53 Calm 16.09 Overcast OVC033 13.3 8.3 72% 76.61 1021.2
06 22:53 W 6 16.09 Overcast OVC032 13.3 8.3 20 13.3 72% 76.61 1021.2
06 21:53 Vrbl 6 16.09 Overcast OVC035 14.4 8.3 67% 76.61 1021.1
06 20:53 Vrbl 6 16.09 Overcast OVC035 15 9.4 69% 76.56 1020.6
06 19:53 Vrbl 6 16.09 Partly Cloudy SCT038 16.1 10 67% 76.48 1019.7
06 18:53 Vrbl 7 16.09 Mostly Cloudy FEW039 BKN049 17.8 10.6 63% 76.48 1019.7
06 17:53 Vrbl 6 16.09 Overcast FEW040 OVC047 20 12.2 61% 76.48 1019.6
06 16:53 Vrbl 7 16.09 Overcast OVC042 19.4 11.7 20 15.6 61% 76.48 1019.5
06 15:53 Vrbl 9 16.09 Overcast OVC042 20 11.1 57% 76.5 1019.8
06 14:53 Vrbl 7 16.09 Mostly Cloudy SCT029 BKN039 19.4 11.1 59% 76.53 1020.2
06 13:53 NW 7 16.09 Overcast BKN024 OVC033 17.2 11.1 68% 76.58 1020.8
06 12:53 NW 7 16.09 Overcast OVC025 17.2 11.7 70% 76.58 1020.9
06 11:53 Calm 16.09 Overcast OVC020 16.7 11.1 70% 76.58 1020.9
06 10:53 W 6 16.09 Overcast OVC019 15.6 10.6 15.6 13.9 72% 76.58 1020.9
06 09:53 Calm 16.09 Overcast OVC019 15 10.6 75% 76.58 1020.8
06 08:53 Calm 16.09 Mostly Cloudy BKN021 BKN041 14.4 10 75% 76.53 1020.1
06 07:53 Vrbl 6 16.09 Overcast OVC020 13.9 10.6 81% 76.56 1020.4
06 06:53 Calm 16.09 Overcast OVC024 13.9 10.6 81% 76.5 1019.8
06 03:53 Calm 16.09 Overcast OVC036 14.4 10.6 78% 76.38 1018.3
06 02:53 W 6 16.09 Overcast OVC035 14.4 10.6 78% 76.35 1017.7
06 01:53 Calm 16.09 Overcast OVC035 15 10.6 75% 76.33 1017.5
06 00:53 W 6 16.09 Overcast OVC034 15.6 11.1 75% 76.3 1017.3
05 23:53 Calm 16.09 Overcast OVC033 16.1 11.7 75% 76.28 1016.9
05 22:53 Calm 16.09 Overcast OVC033 16.1 12.2 17.8 16.1 78% 76.25 1016.6
05 21:53 Calm 16.09 Overcast OVC033 17.2 11.1 68% 76.23 1016.3
05 20:53 SE 6 16.09 Overcast OVC032 16.7 11.7 73% 76.17 1015.6
05 19:53 NE 6 16.09 Overcast OVC032 17.2 11.1 68% 76.15 1015.1
05 18:53 N 6 16.09 Overcast OVC033 17.8 10.6 63% 76.15 1015.0
05 17:53 Calm 16.09 Overcast OVC034 17.8 11.1 65% 76.15 1015.0
05 16:53 Vrbl 6 16.09 Overcast OVC034 17.8 11.1 18.3 15 65% 76.17 1015.4
05 15:53 Vrbl 6 16.09 Overcast OVC035 17.8 11.1 65% 76.17 1015.6
05 14:53 NW 11 16.09 Overcast OVC036 17.8 10.6 63% 76.2 1015.8
05 13:53 Vrbl 7 16.09 Overcast SCT030 OVC039 17.8 11.1 65% 76.23 1016.2
05 12:53 Calm 16.09 Overcast OVC025 16.1 10.6 70% 76.25 1016.5
05 11:53 Vrbl 7 16.09 Overcast OVC022 15.6 10.6 72% 76.25 1016.7
05 10:53 Vrbl 6 16.09 Overcast OVC020 15 10.6 15 13.3 75% 76.25 1016.5
05 09:53 Calm 16.09 Overcast BKN020 OVC028 14.4 10.6 78% 76.23 1016.3
05 08:53 Vrbl 7 16.09 Overcast OVC017 13.9 10.6 81% 76.23 1016.2
05 07:53 SW 7 16.09 Overcast OVC015 13.3 10 81% 76.2 1015.8
05 06:53 SW 9 16.09 Overcast OVC018 13.3 10 81% 76.15 1015.3
05 05:53 S 7 16.09 Overcast OVC019 13.3 10 81% 76.15 1015.0
05 04:53 SW 7 16.09 Overcast BKN019 OVC026 13.3 10 17.8 13.3 81% 76.12 1014.8
05 03:53 SW 7 16.09 Overcast OVC022 13.3 10 81% 76.1 1014.6
05 02:53 SW 11 16.09 Overcast OVC024 13.3 10 81% 76.07 1014.3
05 01:53 Calm 16.09 Overcast BKN026 OVC042 13.9 10.6 81% 76.05 1013.8
05 00:53 W 6 16.09 Mostly Cloudy BKN026 14.4 10.6 78% 76.02 1013.5
04 23:53 W 9 16.09 Fair CLR 15 11.1 78% 75.97 1012.7
04 22:53 W 9 16.09 Overcast OVC042 17.8 11.1 23.3 17.8 65% 75.9 1011.9
04 21:53 SW 9 16.09 Overcast SCT042 OVC050 20 12.8 63% 75.84 1011.2
04 20:53 SW 7 16.09 Overcast OVC046 20.6 13.9 66% 75.79 1010.4
04 19:53 S 11 16.09 Fair CLR 21.7 13.3 59% 75.74 1009.7
04 18:53 SW 13 16.09 Fair CLR 22.8 13.9 57% 75.72 1009.5
04 17:53 S 13 16.09 Fair CLR 23.3 12.8 52% 75.74 1009.8
04 16:53 S 17 16.09 Fair CLR 22.8 12.8 23.3 15.6 53% 75.77 1010.2
04 15:53 SW 7 16.09 Fair CLR 22.2 12.2 53% 75.82 1010.7
04 14:53 Calm 16.09 Fair CLR 21.1 12.2 57% 75.87 1011.4
04 13:53 Vrbl 9 16.09 Fair CLR 20 11.7 59% 75.95 1012.3
04 12:53 Vrbl 7 16.09 Fair CLR 17.8 11.1 65% 75.97 1012.9
04 11:53 Vrbl 6 16.09 Overcast OVC023 17.2 11.1 68% 76.02 1013.4
04 10:53 W 11 16.09 Overcast OVC020 16.1 11.1 16.1 13.3 72% 76.02 1013.5
04 09:53 S 9 16.09 Overcast OVC019 15 10.6 75% 76.02 1013.5
04 08:53 SW 11 16.09 Overcast OVC018 14.4 10.6 78% 76.02 1013.5
Date Time (pdt) Wind (kph) Vis. (km) Weather Sky Cond. Air Dwpt Max. Min. Relative Humidity Wind Chill (°C) Heat Index (°C) altimeter (cm) sea level (mb) 1 hr 3 hr 6 hr
6 hour
Temperature (ºC) Pressure Precipitation (cm)